Terminal Aerodrome Forecast
Issued by NWS Pocatello, ID

Home | Current Version | Previous Version | Text Only | Print | Product List | Glossary On
Versions: 1 2 3 4 5 6 7 8 9 10 11 12 13 14 15 16 17 18 19 20
000
FTUS45 KPIH 251932 AAA
TAFIDA
TAF AMD
KIDA 251932Z 2520/2618 22010KT P6SM SCT050 BKN080 BKN200
     FM252100 VRB04KT P6SM VCTS FEW050CB SCT100 SCT200
     FM260300 09007KT P6SM SCT050 BKN080 OVC110
     FM261000 32015G25KT P6SM VCSH BKN025 OVC070
     FM261300 31010KT P6SM -SHRA BKN015 OVC040=

USA.gov is the U.S. government's official web portal to all federal, state and local government web resources and services.